Time;durP1;ratioP1;P1;durP2;ratioP2;P2;SDS_P1;SDS_P2;PMS_P1;PMS_P2;Temp;Humidity;BMP_temperature;BMP_pressure;BME280_temperature;BME280_humidity;BME280_pressure;Samples;Min_cycle;Max_cycle;Signal;HPM_P1;HPM_P2
2019/12/16 00:00:22;;;;;;;4.65;4.05;;;;;;;4.78;82.78027;94796.48;;;;
2019/12/16 00:01:31;;;;;;;4.65;4.05;;;;;;;4.78;82.78027;94796.48;;;;
2019/12/16 00:02:32;;;;;;;5.6;4.2;;;;;;;4.61;83.00195;94792.11;;;;
2019/12/16 00:03:33;;;;;;;5.6;4.2;;;;;;;4.61;83.00195;94792.11;;;;
2019/12/16 00:04:34;;;;;;;5.6;4.2;;;;;;;4.61;83.00195;94792.11;;;;
2019/12/16 00:05:35;;;;;;;5.6;4.2;;;;;;;4.61;83.00195;94792.11;;;;
2019/12/16 00:06:38;;;;;;;5.6;4.2;;;;;;;4.61;83.00195;94792.11;;;;
2019/12/16 00:07:39;;;;;;;5.6;4.2;;;;;;;4.61;83.00195;94792.11;;;;
2019/12/16 00:08:40;;;;;;;5.6;4.2;;;;;;;4.61;83.00195;94792.11;;;;
2019/12/16 00:09:42;;;;;;;5.6;4.2;;;;;;;4.61;83.00195;94792.11;;;;
2019/12/16 00:10:44;;;;;;;5.6;4.2;;;;;;;4.61;83.00195;94792.11;;;;
2019/12/16 00:11:45;;;;;;;5.6;4.2;;;;;;;4.61;83.00195;94792.11;;;;
2019/12/16 00:12:46;;;;;;;4.8;3.85;;;;;;;4.38;83.07227;94794.55;;;;
2019/12/16 00:13:47;;;;;;;4.8;3.85;;;;;;;4.38;83.07227;94794.55;;;;
2019/12/16 00:14:48;;;;;;;4.8;3.85;;;;;;;4.38;83.07227;94794.55;;;;
2019/12/16 00:15:49;;;;;;;4.8;3.85;;;;;;;4.38;83.07227;94794.55;;;;
2019/12/16 00:16:51;;;;;;;4.8;3.85;;;;;;;4.38;83.07227;94794.55;;;;
2019/12/16 00:17:52;;;;;;;4.8;3.85;;;;;;;4.38;83.07227;94794.55;;;;
2019/12/16 00:18:53;;;;;;;4.8;3.85;;;;;;;4.38;83.07227;94794.55;;;;
2019/12/16 00:19:55;;;;;;;4.8;3.85;;;;;;;4.38;83.07227;94794.55;;;;
2019/12/16 00:21:02;;;;;;;4.8;3.85;;;;;;;4.38;83.07227;94794.55;;;;
2019/12/16 00:22:03;;;;;;;4.8;3.85;;;;;;;4.38;83.07227;94794.55;;;;
2019/12/16 00:23:04;;;;;;;4.65;3.85;;;;;;;4.18;83.22363;94786.08;;;;
2019/12/16 00:24:05;;;;;;;4.65;3.85;;;;;;;4.18;83.22363;94786.08;;;;
2019/12/16 00:25:07;;;;;;;4.65;3.85;;;;;;;4.18;83.22363;94786.08;;;;
2019/12/16 00:26:08;;;;;;;4.65;3.85;;;;;;;4.18;83.22363;94786.08;;;;
2019/12/16 00:27:09;;;;;;;4.65;3.85;;;;;;;4.18;83.22363;94786.08;;;;
2019/12/16 00:28:10;;;;;;;4.65;3.85;;;;;;;4.18;83.22363;94786.08;;;;
2019/12/16 00:29:11;;;;;;;4.65;3.85;;;;;;;4.18;83.22363;94786.08;;;;
2019/12/16 00:30:12;;;;;;;4.65;3.85;;;;;;;4.18;83.22363;94786.08;;;;
2019/12/16 00:31:13;;;;;;;4.65;3.85;;;;;;;4.18;83.22363;94786.08;;;;
2019/12/16 00:32:15;;;;;;;4.65;3.85;;;;;;;4.18;83.22363;94786.08;;;;
2019/12/16 00:33:16;;;;;;;4.65;3.85;;;;;;;4.18;83.22363;94786.08;;;;
2019/12/16 00:34:17;;;;;;;5.100001;3.85;;;;;;;3.85;83.24414;94781.3;;;;
2019/12/16 00:35:18;;;;;;;5.100001;3.85;;;;;;;3.85;83.24414;94781.3;;;;
2019/12/16 00:36:19;;;;;;;5.100001;3.85;;;;;;;3.85;83.24414;94781.3;;;;
2019/12/16 00:37:20;;;;;;;5.100001;3.85;;;;;;;3.85;83.24414;94781.3;;;;
2019/12/16 00:38:21;;;;;;;5.100001;3.85;;;;;;;3.85;83.24414;94781.3;;;;
2019/12/16 00:39:22;;;;;;;5.100001;3.85;;;;;;;3.85;83.24414;94781.3;;;;
2019/12/16 00:40:23;;;;;;;5.100001;3.85;;;;;;;3.85;83.24414;94781.3;;;;
2019/12/16 00:41:25;;;;;;;5.100001;3.85;;;;;;;3.85;83.24414;94781.3;;;;
2019/12/16 00:42:26;;;;;;;5.100001;3.85;;;;;;;3.85;83.24414;94781.3;;;;
2019/12/16 00:43:27;;;;;;;5.100001;3.85;;;;;;;3.85;83.24414;94781.3;;;;
2019/12/16 00:44:28;;;;;;;4.75;3.8;;;;;;;3.59;83.45703;94763.14;;;;
2019/12/16 00:45:29;;;;;;;4.75;3.8;;;;;;;3.59;83.45703;94763.14;;;;
2019/12/16 00:47:13;;;;;;;4.75;3.8;;;;;;;3.59;83.45703;94763.14;;;;
2019/12/16 00:53:25;;;;;;;4.75;3.8;;;;;;;3.59;83.45703;94763.14;;;;
2019/12/16 00:54:27;;;;;;;4.75;3.8;;;;;;;3.59;83.45703;94763.14;;;;
2019/12/16 00:55:28;;;;;;;4.45;3.65;;;;;;;3.33;83.6582;94760.86;;;;
2019/12/16 00:56:29;;;;;;;4.45;3.65;;;;;;;3.33;83.6582;94760.86;;;;
2019/12/16 00:57:30;;;;;;;4.45;3.65;;;;;;;3.33;83.6582;94760.86;;;;
2019/12/16 00:58:31;;;;;;;4.45;3.65;;;;;;;3.33;83.6582;94760.86;;;;
2019/12/16 00:59:32;;;;;;;4.45;3.65;;;;;;;3.33;83.6582;94760.86;;;;
2019/12/16 01:00:34;;;;;;;4.45;3.65;;;;;;;3.33;83.6582;94760.86;;;;
2019/12/16 01:01:35;;;;;;;4.45;3.65;;;;;;;3.33;83.6582;94760.86;;;;
2019/12/16 01:02:37;;;;;;;4.45;3.65;;;;;;;3.33;83.6582;94760.86;;;;
2019/12/16 01:03:38;;;;;;;4.45;3.65;;;;;;;3.33;83.6582;94760.86;;;;
2019/12/16 01:04:39;;;;;;;4.45;3.65;;;;;;;3.33;83.6582;94760.86;;;;
2019/12/16 01:05:41;;;;;;;3.5;3.2;;;;;;;3.17;83.82813;94778.52;;;;
2019/12/16 01:06:42;;;;;;;3.5;3.2;;;;;;;3.17;83.82813;94778.52;;;;
2019/12/16 01:07:43;;;;;;;3.5;3.2;;;;;;;3.17;83.82813;94778.52;;;;
2019/12/16 01:08:44;;;;;;;3.5;3.2;;;;;;;3.17;83.82813;94778.52;;;;
2019/12/16 01:09:45;;;;;;;3.5;3.2;;;;;;;3.17;83.82813;94778.52;;;;
2019/12/16 01:10:46;;;;;;;3.5;3.2;;;;;;;3.17;83.82813;94778.52;;;;
2019/12/16 01:11:47;;;;;;;3.5;3.2;;;;;;;3.17;83.82813;94778.52;;;;
2019/12/16 01:12:48;;;;;;;3.5;3.2;;;;;;;3.17;83.82813;94778.52;;;;
2019/12/16 01:13:49;;;;;;;3.5;3.2;;;;;;;3.17;83.82813;94778.52;;;;
2019/12/16 01:14:51;;;;;;;3.5;3.2;;;;;;;3.17;83.82813;94778.52;;;;
2019/12/16 01:15:52;;;;;;;3.5;3.2;;;;;;;3.17;83.82813;94778.52;;;;
2019/12/16 01:16:53;;;;;;;5.15;3.35;;;;;;;2.94;83.95996;94785.65;;;;
2019/12/16 01:17:54;;;;;;;5.15;3.35;;;;;;;2.94;83.95996;94785.65;;;;
2019/12/16 01:18:55;;;;;;;5.15;3.35;;;;;;;2.94;83.95996;94785.65;;;;
2019/12/16 01:19:56;;;;;;;5.15;3.35;;;;;;;2.94;83.95996;94785.65;;;;
2019/12/16 01:20:57;;;;;;;5.15;3.35;;;;;;;2.94;83.95996;94785.65;;;;
2019/12/16 01:21:58;;;;;;;5.15;3.35;;;;;;;2.94;83.95996;94785.65;;;;
2019/12/16 01:22:59;;;;;;;5.15;3.35;;;;;;;2.94;83.95996;94785.65;;;;
2019/12/16 01:24:00;;;;;;;5.15;3.35;;;;;;;2.94;83.95996;94785.65;;;;
2019/12/16 01:25:01;;;;;;;5.15;3.35;;;;;;;2.94;83.95996;94785.65;;;;
2019/12/16 01:26:03;;;;;;;5.15;3.35;;;;;;;2.94;83.95996;94785.65;;;;
2019/12/16 01:27:04;;;;;;;4.7;3.6;;;;;;;2.79;84.05664;94787.23;;;;
2019/12/16 01:28:05;;;;;;;4.7;3.6;;;;;;;2.79;84.05664;94787.23;;;;
2019/12/16 01:29:06;;;;;;;4.7;3.6;;;;;;;2.79;84.05664;94787.23;;;;
2019/12/16 01:30:07;;;;;;;4.7;3.6;;;;;;;2.79;84.05664;94787.23;;;;
2019/12/16 01:31:08;;;;;;;4.7;3.6;;;;;;;2.79;84.05664;94787.23;;;;
2019/12/16 01:32:09;;;;;;;4.7;3.6;;;;;;;2.79;84.05664;94787.23;;;;
2019/12/16 01:33:10;;;;;;;4.7;3.6;;;;;;;2.79;84.05664;94787.23;;;;
2019/12/16 01:34:11;;;;;;;4.7;3.6;;;;;;;2.79;84.05664;94787.23;;;;
2019/12/16 01:35:13;;;;;;;4.7;3.6;;;;;;;2.79;84.05664;94787.23;;;;
2019/12/16 01:36:14;;;;;;;4.7;3.6;;;;;;;2.79;84.05664;94787.23;;;;
2019/12/16 01:37:15;;;;;;;4.7;3.6;;;;;;;2.79;84.05664;94787.23;;;;
2019/12/16 01:38:16;;;;;;;3.95;3.2;;;;;;;2.59;84.26953;94763.6;;;;
2019/12/16 01:39:17;;;;;;;3.95;3.2;;;;;;;2.59;84.26953;94763.6;;;;
2019/12/16 01:40:18;;;;;;;3.95;3.2;;;;;;;2.59;84.26953;94763.6;;;;
2019/12/16 01:41:19;;;;;;;3.95;3.2;;;;;;;2.59;84.26953;94763.6;;;;
2019/12/16 01:42:20;;;;;;;3.95;3.2;;;;;;;2.59;84.26953;94763.6;;;;
2019/12/16 01:43:21;;;;;;;3.95;3.2;;;;;;;2.59;84.26953;94763.6;;;;
2019/12/16 01:44:22;;;;;;;3.95;3.2;;;;;;;2.59;84.26953;94763.6;;;;
2019/12/16 01:45:24;;;;;;;3.95;3.2;;;;;;;2.59;84.26953;94763.6;;;;
2019/12/16 01:46:25;;;;;;;3.95;3.2;;;;;;;2.59;84.26953;94763.6;;;;
2019/12/16 01:47:26;;;;;;;3.95;3.2;;;;;;;2.59;84.26953;94763.6;;;;
2019/12/16 01:48:27;;;;;;;4.3;3.05;;;;;;;2.56;84.35742;94779.58;;;;
2019/12/16 01:49:28;;;;;;;4.3;3.05;;;;;;;2.56;84.35742;94779.58;;;;
2019/12/16 01:50:29;;;;;;;4.3;3.05;;;;;;;2.56;84.35742;94779.58;;;;
2019/12/16 01:51:30;;;;;;;4.3;3.05;;;;;;;2.56;84.35742;94779.58;;;;
2019/12/16 01:52:31;;;;;;;4.3;3.05;;;;;;;2.56;84.35742;94779.58;;;;
2019/12/16 01:53:32;;;;;;;4.3;3.05;;;;;;;2.56;84.35742;94779.58;;;;
2019/12/16 01:54:33;;;;;;;4.3;3.05;;;;;;;2.56;84.35742;94779.58;;;;
2019/12/16 01:55:37;;;;;;;4.3;3.05;;;;;;;2.56;84.35742;94779.58;;;;
2019/12/16 02:00:07;;;;;;;3.85;2.85;;;;;;;2.44;84.38477;94780.77;;;;
2019/12/16 02:01:12;;;;;;;3.85;2.85;;;;;;;2.44;84.38477;94780.77;;;;
2019/12/16 02:02:25;;;;;;;3.85;2.85;;;;;;;2.44;84.38477;94780.77;;;;
2019/12/16 02:03:27;;;;;;;3.85;2.85;;;;;;;2.44;84.38477;94780.77;;;;
2019/12/16 02:04:28;;;;;;;3.85;2.85;;;;;;;2.44;84.38477;94780.77;;;;
2019/12/16 02:05:29;;;;;;;3.85;2.85;;;;;;;2.44;84.38477;94780.77;;;;
2019/12/16 02:06:31;;;;;;;3.85;2.85;;;;;;;2.44;84.38477;94780.77;;;;
2019/12/16 02:07:32;;;;;;;3.85;2.85;;;;;;;2.44;84.38477;94780.77;;;;
2019/12/16 02:08:33;;;;;;;3.85;2.85;;;;;;;2.44;84.38477;94780.77;;;;
2019/12/16 02:09:34;;;;;;;5.999999;3.9;;;;;;;2.3;84.41113;94767.89;;;;
2019/12/16 02:10:35;;;;;;;5.999999;3.9;;;;;;;2.3;84.41113;94767.89;;;;
2019/12/16 02:11:37;;;;;;;5.999999;3.9;;;;;;;2.3;84.41113;94767.89;;;;
2019/12/16 02:12:38;;;;;;;5.999999;3.9;;;;;;;2.3;84.41113;94767.89;;;;
2019/12/16 02:13:40;;;;;;;5.999999;3.9;;;;;;;2.3;84.41113;94767.89;;;;
2019/12/16 02:14:41;;;;;;;5.999999;3.9;;;;;;;2.3;84.41113;94767.89;;;;
2019/12/16 02:15:42;;;;;;;5.999999;3.9;;;;;;;2.3;84.41113;94767.89;;;;
2019/12/16 02:16:43;;;;;;;5.999999;3.9;;;;;;;2.3;84.41113;94767.89;;;;
2019/12/16 02:17:45;;;;;;;5.999999;3.9;;;;;;;2.3;84.41113;94767.89;;;;
2019/12/16 02:18:46;;;;;;;5.999999;3.9;;;;;;;2.3;84.41113;94767.89;;;;
2019/12/16 02:19:47;;;;;;;5.199999;4.15;;;;;;;2.11;84.52051;94777.03;;;;
2019/12/16 02:20:48;;;;;;;5.199999;4.15;;;;;;;2.11;84.52051;94777.03;;;;
2019/12/16 02:21:49;;;;;;;5.199999;4.15;;;;;;;2.11;84.52051;94777.03;;;;
2019/12/16 02:22:50;;;;;;;5.199999;4.15;;;;;;;2.11;84.52051;94777.03;;;;
2019/12/16 02:23:51;;;;;;;5.199999;4.15;;;;;;;2.11;84.52051;94777.03;;;;
2019/12/16 02:24:53;;;;;;;5.199999;4.15;;;;;;;2.11;84.52051;94777.03;;;;
2019/12/16 02:25:54;;;;;;;5.199999;4.15;;;;;;;2.11;84.52051;94777.03;;;;
2019/12/16 02:26:55;;;;;;;5.199999;4.15;;;;;;;2.11;84.52051;94777.03;;;;
2019/12/16 02:27:56;;;;;;;5.199999;4.15;;;;;;;2.11;84.52051;94777.03;;;;
2019/12/16 02:28:57;;;;;;;5.199999;4.15;;;;;;;2.11;84.52051;94777.03;;;;
2019/12/16 02:29:58;;;;;;;5.199999;4.15;;;;;;;2.11;84.52051;94777.03;;;;
2019/12/16 02:31:00;;;;;;;4.9;4.15;;;;;;;2;84.67578;94762.93;;;;
2019/12/16 02:32:01;;;;;;;4.9;4.15;;;;;;;2;84.67578;94762.93;;;;
2019/12/16 02:33:03;;;;;;;4.9;4.15;;;;;;;2;84.67578;94762.93;;;;
2019/12/16 02:34:04;;;;;;;4.9;4.15;;;;;;;2;84.67578;94762.93;;;;
2019/12/16 02:35:05;;;;;;;4.9;4.15;;;;;;;2;84.67578;94762.93;;;;
2019/12/16 02:36:06;;;;;;;4.9;4.15;;;;;;;2;84.67578;94762.93;;;;
2019/12/16 02:37:07;;;;;;;4.9;4.15;;;;;;;2;84.67578;94762.93;;;;
2019/12/16 02:38:09;;;;;;;4.9;4.15;;;;;;;2;84.67578;94762.93;;;;
2019/12/16 02:39:10;;;;;;;4.9;4.15;;;;;;;2;84.67578;94762.93;;;;
2019/12/16 02:40:11;;;;;;;4.9;4.15;;;;;;;2;84.67578;94762.93;;;;
2019/12/16 02:41:12;;;;;;;5.3;3.7;;;;;;;1.86;84.75195;94738.18;;;;
2019/12/16 02:42:13;;;;;;;5.3;3.7;;;;;;;1.86;84.75195;94738.18;;;;
2019/12/16 02:43:15;;;;;;;5.3;3.7;;;;;;;1.86;84.75195;94738.18;;;;
2019/12/16 02:44:16;;;;;;;5.3;3.7;;;;;;;1.86;84.75195;94738.18;;;;
2019/12/16 02:45:17;;;;;;;5.3;3.7;;;;;;;1.86;84.75195;94738.18;;;;
2019/12/16 02:46:43;;;;;;;5.3;3.7;;;;;;;1.86;84.75195;94738.18;;;;
2019/12/16 02:47:57;;;;;;;5.3;3.7;;;;;;;1.86;84.75195;94738.18;;;;
2019/12/16 02:54:07;;;;;;;4.35;3.5;;;;;;;1.81;84.83691;94745.03;;;;
2019/12/16 02:55:09;;;;;;;4.35;3.5;;;;;;;1.81;84.83691;94745.03;;;;
2019/12/16 02:56:10;;;;;;;4.35;3.5;;;;;;;1.81;84.83691;94745.03;;;;
2019/12/16 02:57:11;;;;;;;4.35;3.5;;;;;;;1.81;84.83691;94745.03;;;;
2019/12/16 02:58:12;;;;;;;4.35;3.5;;;;;;;1.81;84.83691;94745.03;;;;
2019/12/16 02:59:13;;;;;;;4.35;3.5;;;;;;;1.81;84.83691;94745.03;;;;
2019/12/16 03:00:14;;;;;;;4.35;3.5;;;;;;;1.81;84.83691;94745.03;;;;
2019/12/16 03:01:16;;;;;;;4.35;3.5;;;;;;;1.81;84.83691;94745.03;;;;
2019/12/16 03:02:18;;;;;;;4.5;3.2;;;;;;;1.72;85.23828;94724.49;;;;
2019/12/16 03:03:19;;;;;;;4.5;3.2;;;;;;;1.72;85.23828;94724.49;;;;
2019/12/16 03:04:21;;;;;;;4.5;3.2;;;;;;;1.72;85.23828;94724.49;;;;
2019/12/16 03:05:22;;;;;;;4.5;3.2;;;;;;;1.72;85.23828;94724.49;;;;
2019/12/16 03:06:23;;;;;;;4.5;3.2;;;;;;;1.72;85.23828;94724.49;;;;
2019/12/16 03:07:25;;;;;;;4.5;3.2;;;;;;;1.72;85.23828;94724.49;;;;
2019/12/16 03:08:26;;;;;;;4.5;3.2;;;;;;;1.72;85.23828;94724.49;;;;
2019/12/16 03:09:27;;;;;;;4.5;3.2;;;;;;;1.72;85.23828;94724.49;;;;
2019/12/16 03:10:28;;;;;;;4.5;3.2;;;;;;;1.72;85.23828;94724.49;;;;
2019/12/16 03:11:30;;;;;;;4.5;3.2;;;;;;;1.72;85.23828;94724.49;;;;
2019/12/16 03:12:31;;;;;;;4.5;3.2;;;;;;;1.72;85.23828;94724.49;;;;
2019/12/16 03:13:32;;;;;;;4.5;3.2;;;;;;;1.72;85.23828;94724.49;;;;
2019/12/16 03:14:33;;;;;;;4.5;3.2;;;;;;;1.72;85.23828;94724.49;;;;
2019/12/16 03:15:35;;;;;;;4.5;3.2;;;;;;;1.72;85.23828;94724.49;;;;
2019/12/16 03:16:36;;;;;;;4.5;3.2;;;;;;;1.72;85.23828;94724.49;;;;
2019/12/16 03:17:37;;;;;;;4.5;3.2;;;;;;;1.72;85.23828;94724.49;;;;
2019/12/16 03:18:38;;;;;;;4.5;3.2;;;;;;;1.72;85.23828;94724.49;;;;
2019/12/16 03:19:39;;;;;;;4.5;3.2;;;;;;;1.72;85.23828;94724.49;;;;
2019/12/16 03:20:40;;;;;;;4.5;3.2;;;;;;;1.72;85.23828;94724.49;;;;
2019/12/16 03:21:42;;;;;;;4.5;3.2;;;;;;;1.72;85.23828;94724.49;;;;
2019/12/16 03:22:43;;;;;;;4.5;3.2;;;;;;;1.72;85.23828;94724.49;;;;
2019/12/16 03:23:44;;;;;;;5.1;3.05;;;;;;;1.63;84.68652;94720.34;;;;
2019/12/16 03:24:46;;;;;;;5.1;3.05;;;;;;;1.63;84.68652;94720.34;;;;
2019/12/16 03:25:50;;;;;;;5.1;3.05;;;;;;;1.63;84.68652;94720.34;;;;
2019/12/16 03:26:59;;;;;;;5.1;3.05;;;;;;;1.63;84.68652;94720.34;;;;
2019/12/16 03:28:04;;;;;;;5.1;3.05;;;;;;;1.63;84.68652;94720.34;;;;
2019/12/16 03:29:06;;;;;;;5.1;3.05;;;;;;;1.63;84.68652;94720.34;;;;
2019/12/16 03:30:07;;;;;;;5.1;3.05;;;;;;;1.63;84.68652;94720.34;;;;
2019/12/16 03:31:08;;;;;;;5.1;3.05;;;;;;;1.63;84.68652;94720.34;;;;
2019/12/16 03:32:09;;;;;;;5.1;3.05;;;;;;;1.63;84.68652;94720.34;;;;
2019/12/16 03:33:12;;;;;;;5.1;3.05;;;;;;;1.63;84.68652;94720.34;;;;
2019/12/16 03:34:14;;;;;;;5.1;3.05;;;;;;;1.63;84.68652;94720.34;;;;
2019/12/16 03:35:15;;;;;;;4.900001;3.15;;;;;;;1.48;84.92676;94708.56;;;;
2019/12/16 03:36:37;;;;;;;4.900001;3.15;;;;;;;1.48;84.92676;94708.56;;;;
2019/12/16 03:37:39;;;;;;;4.900001;3.15;;;;;;;1.48;84.92676;94708.56;;;;
2019/12/16 03:38:40;;;;;;;4.900001;3.15;;;;;;;1.48;84.92676;94708.56;;;;
2019/12/16 03:39:41;;;;;;;4.900001;3.15;;;;;;;1.48;84.92676;94708.56;;;;
2019/12/16 03:40:42;;;;;;;4.900001;3.15;;;;;;;1.48;84.92676;94708.56;;;;
2019/12/16 03:41:43;;;;;;;4.900001;3.15;;;;;;;1.48;84.92676;94708.56;;;;
2019/12/16 03:42:44;;;;;;;4.900001;3.15;;;;;;;1.48;84.92676;94708.56;;;;
2019/12/16 03:43:45;;;;;;;4.900001;3.15;;;;;;;1.48;84.92676;94708.56;;;;
2019/12/16 03:44:47;;;;;;;4.900001;3.15;;;;;;;1.48;84.92676;94708.56;;;;
2019/12/16 03:45:48;;;;;;;4.15;2.8;;;;;;;1.31;85.10352;94709.77;;;;
2019/12/16 03:46:51;;;;;;;4.15;2.8;;;;;;;1.31;85.10352;94709.77;;;;
2019/12/16 03:47:53;;;;;;;4.15;2.8;;;;;;;1.31;85.10352;94709.77;;;;
2019/12/16 03:48:55;;;;;;;4.15;2.8;;;;;;;1.31;85.10352;94709.77;;;;
2019/12/16 03:49:59;;;;;;;4.15;2.8;;;;;;;1.31;85.10352;94709.77;;;;
2019/12/16 03:51:01;;;;;;;4.15;2.8;;;;;;;1.31;85.10352;94709.77;;;;
2019/12/16 03:52:06;;;;;;;4.15;2.8;;;;;;;1.31;85.10352;94709.77;;;;
2019/12/16 03:53:14;;;;;;;4.15;2.8;;;;;;;1.31;85.10352;94709.77;;;;
2019/12/16 03:54:20;;;;;;;4.15;2.8;;;;;;;1.31;85.10352;94709.77;;;;
2019/12/16 03:55:22;;;;;;;4.15;2.8;;;;;;;1.31;85.10352;94709.77;;;;
2019/12/16 03:56:33;;;;;;;4.6;2.6;;;;;;;1.38;85.82813;94706.69;;;;
2019/12/16 03:57:34;;;;;;;4.6;2.6;;;;;;;1.38;85.82813;94706.69;;;;
2019/12/16 03:58:35;;;;;;;4.6;2.6;;;;;;;1.38;85.82813;94706.69;;;;
2019/12/16 03:59:37;;;;;;;4.6;2.6;;;;;;;1.38;85.82813;94706.69;;;;
2019/12/16 04:00:38;;;;;;;4.6;2.6;;;;;;;1.38;85.82813;94706.69;;;;
2019/12/16 04:01:39;;;;;;;4.6;2.6;;;;;;;1.38;85.82813;94706.69;;;;
2019/12/16 04:02:40;;;;;;;4.6;2.6;;;;;;;1.38;85.82813;94706.69;;;;
2019/12/16 04:03:41;;;;;;;4.6;2.6;;;;;;;1.38;85.82813;94706.69;;;;
2019/12/16 04:04:42;;;;;;;4.6;2.6;;;;;;;1.38;85.82813;94706.69;;;;
2019/12/16 04:05:44;;;;;;;4.6;2.6;;;;;;;1.38;85.82813;94706.69;;;;
2019/12/16 04:06:45;;;;;;;3.5;2.7;;;;;;;1.38;85.3252;94700.12;;;;
2019/12/16 04:07:46;;;;;;;3.5;2.7;;;;;;;1.38;85.3252;94700.12;;;;
2019/12/16 04:08:47;;;;;;;3.5;2.7;;;;;;;1.38;85.3252;94700.12;;;;
2019/12/16 04:09:48;;;;;;;3.5;2.7;;;;;;;1.38;85.3252;94700.12;;;;
2019/12/16 04:10:49;;;;;;;3.5;2.7;;;;;;;1.38;85.3252;94700.12;;;;
2019/12/16 04:11:50;;;;;;;3.5;2.7;;;;;;;1.38;85.3252;94700.12;;;;
2019/12/16 04:12:55;;;;;;;3.5;2.7;;;;;;;1.38;85.3252;94700.12;;;;
2019/12/16 04:13:57;;;;;;;3.5;2.7;;;;;;;1.38;85.3252;94700.12;;;;
2019/12/16 04:14:58;;;;;;;3.5;2.7;;;;;;;1.38;85.3252;94700.12;;;;
2019/12/16 04:15:59;;;;;;;3.5;2.7;;;;;;;1.38;85.3252;94700.12;;;;
2019/12/16 04:17:06;;;;;;;3;2.4;;;;;;;1.38;85.30664;94683.67;;;;
2019/12/16 04:18:08;;;;;;;3;2.4;;;;;;;1.38;85.30664;94683.67;;;;
2019/12/16 04:19:27;;;;;;;3;2.4;;;;;;;1.38;85.30664;94683.67;;;;
2019/12/16 14:07:50;;;;;;;19.05;8.649999;;;;;;;10.73;63.94434;94487.95;;;;
2019/12/16 14:17:06;;;;;;;21.5;9.95;;;;;;;10.14;64.74902;94493.41;;;;
2019/12/16 14:26:22;;;;;;;19.4;9.799999;;;;;;;9.52;65.41797;94490.97;;;;
2019/12/16 14:35:37;;;;;;;21.35;10;;;;;;;9.01;66.18457;94478.22;;;;
2019/12/16 14:44:52;;;;;;;20.2;9.650002;;;;;;;8.48;66.80859;94486.88;;;;
2019/12/16 14:54:07;;;;;;;19.65;9.9;;;;;;;8.09;67.46191;94483.71;;;;
2019/12/16 15:03:22;;;;;;;19.65;9.9;;;;;;;8.09;67.46191;94483.71;;;;
2019/12/16 15:12:42;;;;;;;27.90001;10.45;;;;;;;7.65;68.03223;94492.89;;;;
2019/12/16 15:21:59;;;;;;;21.9;9.7;;;;;;;7.29;68.6582;94502.06;;;;
2019/12/16 15:31:14;;;;;;;26.2;10.35;;;;;;;6.87;69.23926;94498.67;;;;
2019/12/16 15:40:30;;;;;;;26.2;10.35;;;;;;;6.87;69.23926;94498.67;;;;
2019/12/16 15:49:45;;;;;;;17.35;10.7;;;;;;;6.18;70.2002;94524;;;;
2019/12/16 15:59:00;;;;;;;21.55;11.65;;;;;;;5.85;70.9834;94513.84;;;;
2019/12/16 16:08:15;;;;;;;21.55;11.65;;;;;;;5.85;70.9834;94513.84;;;;
2019/12/16 16:17:30;;;;;;;20.35;10.65;;;;;;;5.47;71.58887;94510.02;;;;
2019/12/16 16:26:46;;;;;;;20.65;11.05;;;;;;;5.17;72.24707;94516.65;;;;
2019/12/16 16:36:01;;;;;;;18.4;10.75;;;;;;;4.85;72.8584;94504.83;;;;
2019/12/16 16:45:16;;;;;;;18.65;10.45;;;;;;;4.68;73.49512;94498.89;;;;
2019/12/16 16:54:37;;;;;;;17.8;10.75;;;;;;;4.5;73.87598;94514.78;;;;
2019/12/16 17:04:03;;;;;;;18.4;11.3;;;;;;;4.41;74.39941;94518.34;;;;
2019/12/16 17:13:19;;;;;;;19.45;10.65;;;;;;;4.28;74.76563;94512.29;;;;
2019/12/16 17:22:34;;;;;;;19.45;10.65;;;;;;;4.28;74.76563;94512.29;;;;
2019/12/16 17:31:49;;;;;;;20.45;11.8;;;;;;;4.19;75.22656;94524.55;;;;
2019/12/16 17:41:04;;;;;;;37.55;23.6;;;;;;;4.07;75.64648;94514.36;;;;
2019/12/16 17:50:19;;;;;;;54.15;32.1;;;;;;;4.02;76.0293;94519.03;;;;
2019/12/16 17:59:35;;;;;;;28.4;19.05;;;;;;;3.87;76.37988;94516.74;;;;
2019/12/16 18:08:50;;;;;;;27.3;17.4;;;;;;;3.76;76.80176;94525.03;;;;
2019/12/16 18:18:06;;;;;;;25.9;15.35;;;;;;;3.54;77.17383;94516.5;;;;
2019/12/16 18:27:21;;;;;;;25.15;14.6;;;;;;;3.4;77.62109;94493.17;;;;
2019/12/16 18:36:37;;;;;;;25.15;14.6;;;;;;;3.4;77.62109;94493.17;;;;
2019/12/16 18:45:57;;;;;;;24.55;14.55;;;;;;;3.19;77.99512;94475.08;;;;
2019/12/16 18:55:15;;;;;;;25.1;13.35;;;;;;;3.09;78.42773;94485.89;;;;
2019/12/16 19:04:30;;;;;;;21.45;13.35;;;;;;;3.02;79.03418;94479.22;;;;
2019/12/16 19:13:45;;;;;;;19.6;11.65;;;;;;;3.12;79.41016;94460.53;;;;
2019/12/16 19:23:00;;;;;;;20.9;12.45;;;;;;;3.11;79.52344;94444.62;;;;
2019/12/16 19:32:35;;;;;;;20.15;11.75;;;;;;;3.07;79.7666;94428.36;;;;
2019/12/16 19:41:57;;;;;;;23.2;12.5;;;;;;;2.89;80.09082;94421.55;;;;
2019/12/16 19:51:12;;;;;;;23.2;12.5;;;;;;;2.89;80.09082;94421.55;;;;
2019/12/16 20:00:27;;;;;;;22.75;12.65;;;;;;;2.78;80.36523;94408.87;;;;
2019/12/16 20:09:42;;;;;;;23.6;15.1;;;;;;;2.65;80.66504;94404.49;;;;
2019/12/16 20:18:58;;;;;;;28.35;16.1;;;;;;;2.63;81.00781;94397.22;;;;
2019/12/16 20:28:13;;;;;;;29.7;19.5;;;;;;;2.51;81.25684;94394.39;;;;
2019/12/16 20:37:28;;;;;;;30.6;18.9;;;;;;;2.46;81.54102;94383.54;;;;
2019/12/16 20:46:43;;;;;;;24.5;15.75;;;;;;;2.34;81.85352;94374.13;;;;
2019/12/16 20:55:58;;;;;;;17.2;11.9;;;;;;;2.32;82.25781;94357.56;;;;
2019/12/16 21:05:13;;;;;;;17.2;11.9;;;;;;;2.32;82.25781;94357.56;;;;
2019/12/16 21:14:29;;;;;;;20.15;11.8;;;;;;;2.25;82.49512;94356.76;;;;
2019/12/16 21:23:44;;;;;;;18.95;12;;;;;;;2.22;82.72168;94349.99;;;;
2019/12/16 21:32:59;;;;;;;19.2;12.4;;;;;;;2.14;83.0293;94337.84;;;;
2019/12/16 21:42:14;;;;;;;16.25;12.05;;;;;;;2.14;83.29102;94331.17;;;;
2019/12/16 21:51:30;;;;;;;22.45;13.2;;;;;;;2.04;83.41895;94318.28;;;;
2019/12/16 22:00:45;;;;;;;16.65;11.6;;;;;;;2.02;83.74805;94317.77;;;;
2019/12/16 22:10:00;;;;;;;15.35;10.95;;;;;;;1.95;83.89258;94291.17;;;;
2019/12/16 22:19:15;;;;;;;15.35;10.95;;;;;;;1.95;83.89258;94291.17;;;;
2019/12/16 22:28:30;;;;;;;18.7;12.6;;;;;;;1.96;84.13281;94279.1;;;;
2019/12/16 22:37:45;;;;;;;17.15;10.85;;;;;;;1.9;84.23926;94272.35;;;;
2019/12/16 22:47:01;;;;;;;17.55;10.7;;;;;;;1.96;84.47754;94274.69;;;;
2019/12/16 22:56:16;;;;;;;16.85;10.55;;;;;;;2.02;84.41797;94255.2;;;;
2019/12/16 23:05:31;;;;;;;15.55;10.25;;;;;;;2.16;84.4873;94276.26;;;;
2019/12/16 23:14:46;;;;;;;13.2;9.2;;;;;;;2.19;84.45117;94279.03;;;;
2019/12/16 23:24:01;;;;;;;13.1;8.65;;;;;;;2.21;84.6123;94271.12;;;;
2019/12/16 23:33:17;;;;;;;13.1;8.65;;;;;;;2.21;84.6123;94271.12;;;;
2019/12/16 23:42:32;;;;;;;13.4;8.85;;;;;;;2.16;84.73828;94265.73;;;;
2019/12/16 23:51:47;;;;;;;14.2;8.550001;;;;;;;2.16;84.94824;94275.47;;;;
